sensor_id;sensor_type;location;lat;lon;timestamp;P1;durP1;ratioP1;P2;durP2;ratioP2
73627;SDS011;61923;51.846;5.856;2022-07-23T00:00:53;2.17;;;1.30;;
73627;SDS011;61923;51.846;5.856;2022-07-23T00:03:18;2.50;;;1.30;;
73627;SDS011;61923;51.846;5.856;2022-07-23T00:05:43;2.23;;;1.30;;
73627;SDS011;61923;51.846;5.856;2022-07-23T00:08:09;4.25;;;1.30;;
73627;SDS011;61923;51.846;5.856;2022-07-23T00:10:34;2.95;;;1.50;;
73627;SDS011;61923;51.846;5.856;2022-07-23T00:13:00;1.83;;;1.13;;
73627;SDS011;61923;51.846;5.856;2022-07-23T00:15:26;3.83;;;1.98;;
73627;SDS011;61923;51.846;5.856;2022-07-23T00:17:51;2.03;;;1.35;;
73627;SDS011;61923;51.846;5.856;2022-07-23T00:20:17;3.53;;;1.53;;
73627;SDS011;61923;51.846;5.856;2022-07-23T00:22:49;2.65;;;1.40;;
73627;SDS011;61923;51.846;5.856;2022-07-23T00:25:16;1.83;;;1.30;;
73627;SDS011;61923;51.846;5.856;2022-07-23T00:27:41;2.75;;;1.58;;
73627;SDS011;61923;51.846;5.856;2022-07-23T00:30:07;2.50;;;1.50;;
73627;SDS011;61923;51.846;5.856;2022-07-23T00:32:44;2.78;;;1.40;;
73627;SDS011;61923;51.846;5.856;2022-07-23T00:35:22;3.10;;;1.30;;
73627;SDS011;61923;51.846;5.856;2022-07-23T00:37:51;2.15;;;1.20;;
73627;SDS011;61923;51.846;5.856;2022-07-23T00:40:17;2.58;;;1.40;;
73627;SDS011;61923;51.846;5.856;2022-07-23T00:42:42;2.20;;;1.40;;
73627;SDS011;61923;51.846;5.856;2022-07-23T00:45:08;2.00;;;1.40;;
73627;SDS011;61923;51.846;5.856;2022-07-23T00:47:34;1.92;;;1.35;;
73627;SDS011;61923;51.846;5.856;2022-07-23T00:49:59;2.15;;;1.40;;
73627;SDS011;61923;51.846;5.856;2022-07-23T00:52:25;2.80;;;1.40;;
73627;SDS011;61923;51.846;5.856;2022-07-23T00:54:50;1.60;;;1.10;;
73627;SDS011;61923;51.846;5.856;2022-07-23T00:57:16;3.25;;;1.38;;
73627;SDS011;61923;51.846;5.856;2022-07-23T00:59:42;2.83;;;1.40;;
73627;SDS011;61923;51.846;5.856;2022-07-23T01:02:08;1.93;;;1.13;;
73627;SDS011;61923;51.846;5.856;2022-07-23T01:04:33;2.00;;;1.20;;
73627;SDS011;61923;51.846;5.856;2022-07-23T01:06:59;3.22;;;1.30;;
73627;SDS011;61923;51.846;5.856;2022-07-23T01:09:25;3.20;;;1.60;;
73627;SDS011;61923;51.846;5.856;2022-07-23T01:11:51;2.30;;;1.30;;
73627;SDS011;61923;51.846;5.856;2022-07-23T01:14:19;2.22;;;1.25;;
73627;SDS011;61923;51.846;5.856;2022-07-23T01:16:46;2.53;;;1.40;;
73627;SDS011;61923;51.846;5.856;2022-07-23T01:19:13;1.80;;;1.00;;
73627;SDS011;61923;51.846;5.856;2022-07-23T01:21:40;2.25;;;1.27;;
73627;SDS011;61923;51.846;5.856;2022-07-23T01:24:16;2.08;;;1.17;;
73627;SDS011;61923;51.846;5.856;2022-07-23T01:26:46;1.92;;;1.10;;
73627;SDS011;61923;51.846;5.856;2022-07-23T01:29:12;2.25;;;1.10;;
73627;SDS011;61923;51.846;5.856;2022-07-23T01:31:38;1.95;;;1.17;;
73627;SDS011;61923;51.846;5.856;2022-07-23T01:34:04;3.03;;;1.27;;
73627;SDS011;61923;51.846;5.856;2022-07-23T01:36:32;2.47;;;1.35;;
73627;SDS011;61923;51.846;5.856;2022-07-23T01:38:58;2.40;;;1.40;;
73627;SDS011;61923;51.846;5.856;2022-07-23T01:41:23;2.13;;;1.30;;
73627;SDS011;61923;51.846;5.856;2022-07-23T01:43:49;2.40;;;1.42;;
73627;SDS011;61923;51.846;5.856;2022-07-23T01:46:14;2.03;;;1.13;;
73627;SDS011;61923;51.846;5.856;2022-07-23T01:48:39;2.20;;;1.25;;
73627;SDS011;61923;51.846;5.856;2022-07-23T01:51:05;3.13;;;1.40;;
73627;SDS011;61923;51.846;5.856;2022-07-23T01:53:30;2.70;;;1.20;;
73627;SDS011;61923;51.846;5.856;2022-07-23T01:55:56;3.03;;;1.23;;
73627;SDS011;61923;51.846;5.856;2022-07-23T01:58:22;2.95;;;1.33;;
73627;SDS011;61923;51.846;5.856;2022-07-23T02:00:48;2.78;;;1.40;;
73627;SDS011;61923;51.846;5.856;2022-07-23T02:03:13;1.75;;;1.20;;
73627;SDS011;61923;51.846;5.856;2022-07-23T02:05:39;4.32;;;1.30;;
73627;SDS011;61923;51.846;5.856;2022-07-23T02:08:04;1.98;;;1.30;;
73627;SDS011;61923;51.846;5.856;2022-07-23T02:10:30;2.40;;;1.30;;
73627;SDS011;61923;51.846;5.856;2022-07-23T02:12:55;1.60;;;1.17;;
73627;SDS011;61923;51.846;5.856;2022-07-23T02:15:21;3.13;;;1.27;;
73627;SDS011;61923;51.846;5.856;2022-07-23T02:17:46;2.30;;;1.15;;
73627;SDS011;61923;51.846;5.856;2022-07-23T02:20:12;2.40;;;1.25;;
73627;SDS011;61923;51.846;5.856;2022-07-23T02:22:37;2.03;;;1.00;;
73627;SDS011;61923;51.846;5.856;2022-07-23T02:25:04;2.10;;;1.10;;
73627;SDS011;61923;51.846;5.856;2022-07-23T02:27:30;2.35;;;1.30;;
73627;SDS011;61923;51.846;5.856;2022-07-23T02:29:56;4.07;;;1.52;;
73627;SDS011;61923;51.846;5.856;2022-07-23T02:32:22;2.60;;;1.10;;
73627;SDS011;61923;51.846;5.856;2022-07-23T02:34:48;3.25;;;1.40;;
73627;SDS011;61923;51.846;5.856;2022-07-23T02:37:14;2.35;;;1.27;;
73627;SDS011;61923;51.846;5.856;2022-07-23T02:39:39;2.10;;;1.38;;
73627;SDS011;61923;51.846;5.856;2022-07-23T02:42:05;2.28;;;1.15;;
73627;SDS011;61923;51.846;5.856;2022-07-23T02:44:30;2.88;;;1.30;;
73627;SDS011;61923;51.846;5.856;2022-07-23T02:46:55;1.80;;;1.17;;
73627;SDS011;61923;51.846;5.856;2022-07-23T02:49:21;2.97;;;1.25;;
73627;SDS011;61923;51.846;5.856;2022-07-23T02:51:46;1.53;;;1.10;;
73627;SDS011;61923;51.846;5.856;2022-07-23T02:54:12;2.73;;;1.50;;
73627;SDS011;61923;51.846;5.856;2022-07-23T02:56:37;3.38;;;1.30;;
73627;SDS011;61923;51.846;5.856;2022-07-23T02:59:02;2.47;;;1.07;;
73627;SDS011;61923;51.846;5.856;2022-07-23T03:01:28;2.40;;;1.07;;
73627;SDS011;61923;51.846;5.856;2022-07-23T03:03:53;2.65;;;1.13;;
73627;SDS011;61923;51.846;5.856;2022-07-23T03:06:19;2.38;;;1.20;;
73627;SDS011;61923;51.846;5.856;2022-07-23T03:08:44;2.83;;;1.20;;
73627;SDS011;61923;51.846;5.856;2022-07-23T03:11:09;1.83;;;1.00;;
73627;SDS011;61923;51.846;5.856;2022-07-23T03:13:38;1.60;;;1.20;;
73627;SDS011;61923;51.846;5.856;2022-07-23T03:16:04;1.83;;;1.20;;
73627;SDS011;61923;51.846;5.856;2022-07-23T03:18:30;1.90;;;1.30;;
73627;SDS011;61923;51.846;5.856;2022-07-23T03:20:56;1.42;;;1.00;;
73627;SDS011;61923;51.846;5.856;2022-07-23T03:23:21;2.10;;;1.00;;
73627;SDS011;61923;51.846;5.856;2022-07-23T03:25:46;2.60;;;1.33;;
73627;SDS011;61923;51.846;5.856;2022-07-23T03:28:15;2.22;;;1.10;;
73627;SDS011;61923;51.846;5.856;2022-07-23T03:30:42;2.80;;;1.10;;
73627;SDS011;61923;51.846;5.856;2022-07-23T03:33:08;2.17;;;1.10;;
73627;SDS011;61923;51.846;5.856;2022-07-23T03:35:33;1.92;;;1.10;;
73627;SDS011;61923;51.846;5.856;2022-07-23T03:37:59;2.97;;;1.20;;
73627;SDS011;61923;51.846;5.856;2022-07-23T03:40:24;2.50;;;1.10;;
73627;SDS011;61923;51.846;5.856;2022-07-23T03:42:50;1.70;;;1.20;;
73627;SDS011;61923;51.846;5.856;2022-07-23T03:45:15;2.10;;;1.30;;
73627;SDS011;61923;51.846;5.856;2022-07-23T03:47:40;2.15;;;1.10;;
73627;SDS011;61923;51.846;5.856;2022-07-23T03:50:06;1.90;;;1.20;;
73627;SDS011;61923;51.846;5.856;2022-07-23T03:52:32;3.00;;;1.40;;
73627;SDS011;61923;51.846;5.856;2022-07-23T03:54:57;1.98;;;1.00;;
73627;SDS011;61923;51.846;5.856;2022-07-23T03:57:23;2.67;;;1.10;;
73627;SDS011;61923;51.846;5.856;2022-07-23T03:59:48;2.13;;;1.27;;
73627;SDS011;61923;51.846;5.856;2022-07-23T04:02:14;2.45;;;1.40;;
73627;SDS011;61923;51.846;5.856;2022-07-23T04:04:39;3.35;;;1.10;;
73627;SDS011;61923;51.846;5.856;2022-07-23T04:07:04;4.43;;;1.40;;
73627;SDS011;61923;51.846;5.856;2022-07-23T04:09:31;3.72;;;1.10;;
73627;SDS011;61923;51.846;5.856;2022-07-23T04:11:56;3.47;;;1.20;;
73627;SDS011;61923;51.846;5.856;2022-07-23T04:14:22;2.33;;;1.10;;
73627;SDS011;61923;51.846;5.856;2022-07-23T04:16:47;3.07;;;1.20;;
73627;SDS011;61923;51.846;5.856;2022-07-23T04:19:13;2.85;;;1.50;;
73627;SDS011;61923;51.846;5.856;2022-07-23T04:21:38;2.83;;;1.40;;
73627;SDS011;61923;51.846;5.856;2022-07-23T04:24:04;3.13;;;1.75;;
73627;SDS011;61923;51.846;5.856;2022-07-23T04:26:29;2.67;;;1.45;;
73627;SDS011;61923;51.846;5.856;2022-07-23T04:28:55;3.33;;;1.40;;
73627;SDS011;61923;51.846;5.856;2022-07-23T04:31:20;3.40;;;1.67;;
73627;SDS011;61923;51.846;5.856;2022-07-23T04:33:46;2.90;;;1.70;;
73627;SDS011;61923;51.846;5.856;2022-07-23T04:36:11;3.23;;;1.50;;
73627;SDS011;61923;51.846;5.856;2022-07-23T04:38:36;2.83;;;1.50;;
73627;SDS011;61923;51.846;5.856;2022-07-23T04:41:02;2.77;;;1.50;;
73627;SDS011;61923;51.846;5.856;2022-07-23T04:43:27;3.50;;;2.17;;
73627;SDS011;61923;51.846;5.856;2022-07-23T04:45:53;2.53;;;1.65;;
73627;SDS011;61923;51.846;5.856;2022-07-23T04:48:18;2.25;;;1.58;;
73627;SDS011;61923;51.846;5.856;2022-07-23T04:50:43;2.63;;;1.83;;
73627;SDS011;61923;51.846;5.856;2022-07-23T04:53:09;3.10;;;1.60;;
73627;SDS011;61923;51.846;5.856;2022-07-23T04:55:34;3.83;;;1.55;;
73627;SDS011;61923;51.846;5.856;2022-07-23T04:58:00;3.22;;;1.70;;
73627;SDS011;61923;51.846;5.856;2022-07-23T05:00:25;6.05;;;1.40;;
73627;SDS011;61923;51.846;5.856;2022-07-23T05:02:51;2.75;;;1.50;;
73627;SDS011;61923;51.846;5.856;2022-07-23T05:05:16;3.28;;;1.20;;
73627;SDS011;61923;51.846;5.856;2022-07-23T05:07:42;3.15;;;1.50;;
73627;SDS011;61923;51.846;5.856;2022-07-23T05:10:07;1.80;;;1.30;;
73627;SDS011;61923;51.846;5.856;2022-07-23T05:12:33;2.55;;;1.73;;
73627;SDS011;61923;51.846;5.856;2022-07-23T05:14:58;3.08;;;1.90;;
73627;SDS011;61923;51.846;5.856;2022-07-23T05:17:23;4.03;;;1.92;;
73627;SDS011;61923;51.846;5.856;2022-07-23T05:19:49;2.80;;;2.00;;
73627;SDS011;61923;51.846;5.856;2022-07-23T05:22:14;2.90;;;1.90;;
73627;SDS011;61923;51.846;5.856;2022-07-23T05:24:40;2.77;;;1.70;;
73627;SDS011;61923;51.846;5.856;2022-07-23T05:27:05;4.22;;;1.85;;
73627;SDS011;61923;51.846;5.856;2022-07-23T05:29:30;3.43;;;1.63;;
73627;SDS011;61923;51.846;5.856;2022-07-23T05:31:56;3.47;;;2.00;;
73627;SDS011;61923;51.846;5.856;2022-07-23T05:34:21;3.63;;;1.80;;
73627;SDS011;61923;51.846;5.856;2022-07-23T05:36:47;2.97;;;1.70;;
73627;SDS011;61923;51.846;5.856;2022-07-23T05:39:13;3.78;;;1.50;;
73627;SDS011;61923;51.846;5.856;2022-07-23T05:41:39;4.88;;;1.83;;
73627;SDS011;61923;51.846;5.856;2022-07-23T05:44:04;3.20;;;1.70;;
73627;SDS011;61923;51.846;5.856;2022-07-23T05:46:29;4.25;;;2.03;;
73627;SDS011;61923;51.846;5.856;2022-07-23T05:48:55;4.05;;;1.70;;
73627;SDS011;61923;51.846;5.856;2022-07-23T05:51:21;4.03;;;1.88;;
73627;SDS011;61923;51.846;5.856;2022-07-23T05:53:47;3.35;;;2.00;;
73627;SDS011;61923;51.846;5.856;2022-07-23T05:56:13;5.20;;;2.35;;
73627;SDS011;61923;51.846;5.856;2022-07-23T05:58:38;3.38;;;2.00;;
73627;SDS011;61923;51.846;5.856;2022-07-23T06:01:03;2.90;;;2.20;;
73627;SDS011;61923;51.846;5.856;2022-07-23T06:03:29;4.25;;;2.15;;
73627;SDS011;61923;51.846;5.856;2022-07-23T06:05:54;3.88;;;2.15;;
73627;SDS011;61923;51.846;5.856;2022-07-23T06:08:20;4.50;;;2.37;;
73627;SDS011;61923;51.846;5.856;2022-07-23T06:10:45;3.30;;;2.20;;
73627;SDS011;61923;51.846;5.856;2022-07-23T06:13:10;2.87;;;1.83;;
73627;SDS011;61923;51.846;5.856;2022-07-23T06:15:36;4.00;;;1.67;;
73627;SDS011;61923;51.846;5.856;2022-07-23T06:18:01;4.40;;;2.58;;
73627;SDS011;61923;51.846;5.856;2022-07-23T06:20:27;3.55;;;1.88;;
73627;SDS011;61923;51.846;5.856;2022-07-23T06:22:52;3.80;;;2.30;;
73627;SDS011;61923;51.846;5.856;2022-07-23T06:25:18;2.72;;;2.00;;
73627;SDS011;61923;51.846;5.856;2022-07-23T06:27:45;4.03;;;2.08;;
73627;SDS011;61923;51.846;5.856;2022-07-23T06:30:11;3.65;;;1.60;;
73627;SDS011;61923;51.846;5.856;2022-07-23T06:32:37;4.35;;;1.85;;
73627;SDS011;61923;51.846;5.856;2022-07-23T06:35:02;2.43;;;1.07;;
73627;SDS011;61923;51.846;5.856;2022-07-23T06:37:28;0.88;;;0.13;;
73627;SDS011;61923;51.846;5.856;2022-07-23T06:39:53;0.10;;;0.10;;
73627;SDS011;61923;51.846;5.856;2022-07-23T06:42:19;0.10;;;0.10;;
73627;SDS011;61923;51.846;5.856;2022-07-23T06:44:44;0.22;;;0.20;;
73627;SDS011;61923;51.846;5.856;2022-07-23T06:47:09;0.20;;;0.20;;
73627;SDS011;61923;51.846;5.856;2022-07-23T06:49:35;0.10;;;0.10;;
73627;SDS011;61923;51.846;5.856;2022-07-23T06:52:00;0.00;;;0.00;;
73627;SDS011;61923;51.846;5.856;2022-07-23T06:54:25;0.57;;;0.00;;
73627;SDS011;61923;51.846;5.856;2022-07-23T06:56:51;0.17;;;0.10;;
73627;SDS011;61923;51.846;5.856;2022-07-23T06:59:16;0.08;;;0.08;;
73627;SDS011;61923;51.846;5.856;2022-07-23T07:01:42;0.00;;;0.00;;
73627;SDS011;61923;51.846;5.856;2022-07-23T07:04:07;0.10;;;0.10;;
73627;SDS011;61923;51.846;5.856;2022-07-23T07:06:32;0.00;;;0.00;;
73627;SDS011;61923;51.846;5.856;2022-07-23T07:08:58;0.00;;;0.00;;
73627;SDS011;61923;51.846;5.856;2022-07-23T07:11:23;0.00;;;0.00;;
73627;SDS011;61923;51.846;5.856;2022-07-23T07:13:50;0.00;;;0.00;;
73627;SDS011;61923;51.846;5.856;2022-07-23T07:16:16;0.00;;;0.00;;
73627;SDS011;61923;51.846;5.856;2022-07-23T07:18:41;0.00;;;0.00;;
73627;SDS011;61923;51.846;5.856;2022-07-23T07:21:06;0.00;;;0.00;;
73627;SDS011;61923;51.846;5.856;2022-07-23T07:23:32;0.00;;;0.00;;
73627;SDS011;61923;51.846;5.856;2022-07-23T07:25:58;0.00;;;0.00;;
73627;SDS011;61923;51.846;5.856;2022-07-23T07:28:23;0.00;;;0.00;;
73627;SDS011;61923;51.846;5.856;2022-07-23T07:30:49;0.00;;;0.00;;
73627;SDS011;61923;51.846;5.856;2022-07-23T07:33:14;0.03;;;0.00;;
73627;SDS011;61923;51.846;5.856;2022-07-23T07:35:40;0.00;;;0.00;;
73627;SDS011;61923;51.846;5.856;2022-07-23T07:38:05;0.00;;;0.00;;
73627;SDS011;61923;51.846;5.856;2022-07-23T07:40:31;0.00;;;0.00;;
73627;SDS011;61923;51.846;5.856;2022-07-23T07:42:56;0.00;;;0.00;;
73627;SDS011;61923;51.846;5.856;2022-07-23T07:45:22;0.00;;;0.00;;
73627;SDS011;61923;51.846;5.856;2022-07-23T07:47:48;0.00;;;0.00;;
73627;SDS011;61923;51.846;5.856;2022-07-23T07:50:15;0.00;;;0.00;;
73627;SDS011;61923;51.846;5.856;2022-07-23T07:52:40;0.00;;;0.00;;
73627;SDS011;61923;51.846;5.856;2022-07-23T07:55:07;0.00;;;0.00;;
73627;SDS011;61923;51.846;5.856;2022-07-23T07:57:35;0.00;;;0.00;;
73627;SDS011;61923;51.846;5.856;2022-07-23T08:00:04;0.00;;;0.00;;
73627;SDS011;61923;51.846;5.856;2022-07-23T08:05:13;0.00;;;0.00;;
73627;SDS011;61923;51.846;5.856;2022-07-23T08:07:39;0.00;;;0.00;;
73627;SDS011;61923;51.846;5.856;2022-07-23T08:10:08;0.00;;;0.00;;
73627;SDS011;61923;51.846;5.856;2022-07-23T08:12:53;0.00;;;0.00;;
73627;SDS011;61923;51.846;5.856;2022-07-23T08:15:24;0.00;;;0.00;;
73627;SDS011;61923;51.846;5.856;2022-07-23T08:17:51;0.00;;;0.00;;
73627;SDS011;61923;51.846;5.856;2022-07-23T08:20:18;0.00;;;0.00;;
73627;SDS011;61923;51.846;5.856;2022-07-23T08:22:46;0.00;;;0.00;;
73627;SDS011;61923;51.846;5.856;2022-07-23T08:25:14;0.00;;;0.00;;
73627;SDS011;61923;51.846;5.856;2022-07-23T08:27:40;0.00;;;0.00;;
73627;SDS011;61923;51.846;5.856;2022-07-23T08:30:06;0.00;;;0.00;;
73627;SDS011;61923;51.846;5.856;2022-07-23T08:32:32;0.00;;;0.00;;
73627;SDS011;61923;51.846;5.856;2022-07-23T08:34:57;0.00;;;0.00;;
73627;SDS011;61923;51.846;5.856;2022-07-23T08:37:23;0.00;;;0.00;;
73627;SDS011;61923;51.846;5.856;2022-07-23T08:39:49;0.00;;;0.00;;
73627;SDS011;61923;51.846;5.856;2022-07-23T08:42:14;0.00;;;0.00;;
73627;SDS011;61923;51.846;5.856;2022-07-23T08:44:44;0.00;;;0.00;;
73627;SDS011;61923;51.846;5.856;2022-07-23T08:47:11;0.00;;;0.00;;
73627;SDS011;61923;51.846;5.856;2022-07-23T08:49:38;0.00;;;0.00;;
73627;SDS011;61923;51.846;5.856;2022-07-23T08:52:05;0.00;;;0.00;;
73627;SDS011;61923;51.846;5.856;2022-07-23T08:54:32;0.00;;;0.00;;
73627;SDS011;61923;51.846;5.856;2022-07-23T08:56:59;0.00;;;0.00;;
73627;SDS011;61923;51.846;5.856;2022-07-23T08:59:25;0.00;;;0.00;;
73627;SDS011;61923;51.846;5.856;2022-07-23T09:01:51;0.00;;;0.00;;
73627;SDS011;61923;51.846;5.856;2022-07-23T09:04:17;0.00;;;0.00;;
73627;SDS011;61923;51.846;5.856;2022-07-23T09:06:42;0.00;;;0.00;;
73627;SDS011;61923;51.846;5.856;2022-07-23T09:09:18;0.00;;;0.00;;
73627;SDS011;61923;51.846;5.856;2022-07-23T09:11:48;0.00;;;0.00;;
73627;SDS011;61923;51.846;5.856;2022-07-23T09:17:09;0.00;;;0.00;;
73627;SDS011;61923;51.846;5.856;2022-07-23T09:19:35;0.00;;;0.00;;
73627;SDS011;61923;51.846;5.856;2022-07-23T09:22:17;0.00;;;0.00;;
73627;SDS011;61923;51.846;5.856;2022-07-23T09:30:24;0.00;;;0.00;;
73627;SDS011;61923;51.846;5.856;2022-07-23T09:33:11;0.00;;;0.00;;
73627;SDS011;61923;51.846;5.856;2022-07-23T09:35:45;0.00;;;0.00;;
73627;SDS011;61923;51.846;5.856;2022-07-23T09:38:18;0.00;;;0.00;;
73627;SDS011;61923;51.846;5.856;2022-07-23T09:40:45;0.00;;;0.00;;
73627;SDS011;61923;51.846;5.856;2022-07-23T09:43:12;0.00;;;0.00;;
73627;SDS011;61923;51.846;5.856;2022-07-23T09:45:51;0.00;;;0.00;;
73627;SDS011;61923;51.846;5.856;2022-07-23T09:48:16;0.00;;;0.00;;
73627;SDS011;61923;51.846;5.856;2022-07-23T09:50:42;0.00;;;0.00;;
73627;SDS011;61923;51.846;5.856;2022-07-23T09:53:09;0.00;;;0.00;;
73627;SDS011;61923;51.846;5.856;2022-07-23T09:55:48;0.00;;;0.00;;
73627;SDS011;61923;51.846;5.856;2022-07-23T09:58:14;0.00;;;0.00;;
73627;SDS011;61923;51.846;5.856;2022-07-23T10:00:42;0.00;;;0.00;;
73627;SDS011;61923;51.846;5.856;2022-07-23T10:03:09;0.00;;;0.00;;
73627;SDS011;61923;51.846;5.856;2022-07-23T10:05:40;0.00;;;0.00;;
73627;SDS011;61923;51.846;5.856;2022-07-23T10:08:08;0.00;;;0.00;;
73627;SDS011;61923;51.846;5.856;2022-07-23T10:10:38;0.00;;;0.00;;
73627;SDS011;61923;51.846;5.856;2022-07-23T10:13:04;0.00;;;0.00;;
73627;SDS011;61923;51.846;5.856;2022-07-23T10:15:50;0.05;;;0.00;;
73627;SDS011;61923;51.846;5.856;2022-07-23T10:18:16;0.00;;;0.00;;
73627;SDS011;61923;51.846;5.856;2022-07-23T10:20:42;0.00;;;0.00;;
73627;SDS011;61923;51.846;5.856;2022-07-23T10:25:47;0.00;;;0.00;;
73627;SDS011;61923;51.846;5.856;2022-07-23T10:31:10;0.00;;;0.00;;
73627;SDS011;61923;51.846;5.856;2022-07-23T10:36:42;0.00;;;0.00;;
73627;SDS011;61923;51.846;5.856;2022-07-23T10:39:24;0.00;;;0.00;;
73627;SDS011;61923;51.846;5.856;2022-07-23T10:41:53;0.00;;;0.00;;
73627;SDS011;61923;51.846;5.856;2022-07-23T10:44:38;0.00;;;0.00;;
73627;SDS011;61923;51.846;5.856;2022-07-23T10:47:09;0.00;;;0.00;;
73627;SDS011;61923;51.846;5.856;2022-07-23T10:49:35;0.00;;;0.00;;
73627;SDS011;61923;51.846;5.856;2022-07-23T10:52:20;0.00;;;0.00;;
73627;SDS011;61923;51.846;5.856;2022-07-23T10:54:50;0.00;;;0.00;;
73627;SDS011;61923;51.846;5.856;2022-07-23T10:57:46;0.00;;;0.00;;
73627;SDS011;61923;51.846;5.856;2022-07-23T11:00:22;0.00;;;0.00;;
73627;SDS011;61923;51.846;5.856;2022-07-23T11:02:50;0.00;;;0.00;;
73627;SDS011;61923;51.846;5.856;2022-07-23T11:05:18;0.00;;;0.00;;
73627;SDS011;61923;51.846;5.856;2022-07-23T11:10:46;0.00;;;0.00;;
73627;SDS011;61923;51.846;5.856;2022-07-23T11:18:59;0.00;;;0.00;;
73627;SDS011;61923;51.846;5.856;2022-07-23T11:24:04;0.00;;;0.00;;
73627;SDS011;61923;51.846;5.856;2022-07-23T11:34:32;0.00;;;0.00;;
73627;SDS011;61923;51.846;5.856;2022-07-23T11:36:58;0.00;;;0.00;;
73627;SDS011;61923;51.846;5.856;2022-07-23T11:39:25;0.00;;;0.00;;
73627;SDS011;61923;51.846;5.856;2022-07-23T11:41:52;0.00;;;0.00;;
73627;SDS011;61923;51.846;5.856;2022-07-23T11:44:25;0.00;;;0.00;;
73627;SDS011;61923;51.846;5.856;2022-07-23T11:47:01;0.00;;;0.00;;
73627;SDS011;61923;51.846;5.856;2022-07-23T11:49:28;0.00;;;0.00;;
73627;SDS011;61923;51.846;5.856;2022-07-23T11:52:07;0.10;;;0.00;;
73627;SDS011;61923;51.846;5.856;2022-07-23T11:55:02;0.00;;;0.00;;
73627;SDS011;61923;51.846;5.856;2022-07-23T11:57:31;0.00;;;0.00;;
73627;SDS011;61923;51.846;5.856;2022-07-23T12:00:02;0.00;;;0.00;;
73627;SDS011;61923;51.846;5.856;2022-07-23T12:02:31;0.00;;;0.00;;
73627;SDS011;61923;51.846;5.856;2022-07-23T12:04:56;0.00;;;0.00;;
73627;SDS011;61923;51.846;5.856;2022-07-23T12:07:38;0.00;;;0.00;;
73627;SDS011;61923;51.846;5.856;2022-07-23T12:10:13;0.03;;;0.03;;
73627;SDS011;61923;51.846;5.856;2022-07-23T12:12:41;0.00;;;0.00;;
73627;SDS011;61923;51.846;5.856;2022-07-23T12:15:19;0.00;;;0.00;;
73627;SDS011;61923;51.846;5.856;2022-07-23T12:17:47;0.00;;;0.00;;
73627;SDS011;61923;51.846;5.856;2022-07-23T12:20:15;0.00;;;0.00;;
73627;SDS011;61923;51.846;5.856;2022-07-23T12:22:43;0.00;;;0.00;;
73627;SDS011;61923;51.846;5.856;2022-07-23T12:25:12;0.00;;;0.00;;
73627;SDS011;61923;51.846;5.856;2022-07-23T12:27:40;0.00;;;0.00;;
73627;SDS011;61923;51.846;5.856;2022-07-23T12:30:26;0.00;;;0.00;;
73627;SDS011;61923;51.846;5.856;2022-07-23T12:32:54;0.00;;;0.00;;
73627;SDS011;61923;51.846;5.856;2022-07-23T12:35:22;0.00;;;0.00;;
73627;SDS011;61923;51.846;5.856;2022-07-23T12:37:59;0.00;;;0.00;;
73627;SDS011;61923;51.846;5.856;2022-07-23T12:42:55;0.00;;;0.00;;
73627;SDS011;61923;51.846;5.856;2022-07-23T12:45:21;0.00;;;0.00;;
73627;SDS011;61923;51.846;5.856;2022-07-23T12:47:51;0.00;;;0.00;;
73627;SDS011;61923;51.846;5.856;2022-07-23T12:50:42;0.00;;;0.00;;
73627;SDS011;61923;51.846;5.856;2022-07-23T12:53:15;0.00;;;0.00;;
73627;SDS011;61923;51.846;5.856;2022-07-23T12:55:46;0.00;;;0.00;;
73627;SDS011;61923;51.846;5.856;2022-07-23T12:58:17;0.00;;;0.00;;
73627;SDS011;61923;51.846;5.856;2022-07-23T13:00:54;0.00;;;0.00;;
73627;SDS011;61923;51.846;5.856;2022-07-23T13:05:58;0.00;;;0.00;;
73627;SDS011;61923;51.846;5.856;2022-07-23T13:08:28;0.00;;;0.00;;
73627;SDS011;61923;51.846;5.856;2022-07-23T13:10:55;0.00;;;0.00;;
73627;SDS011;61923;51.846;5.856;2022-07-23T13:13:25;0.00;;;0.00;;
73627;SDS011;61923;51.846;5.856;2022-07-23T13:18:18;0.05;;;0.05;;
73627;SDS011;61923;51.846;5.856;2022-07-23T13:20:45;0.00;;;0.00;;
73627;SDS011;61923;51.846;5.856;2022-07-23T13:23:11;0.00;;;0.00;;
73627;SDS011;61923;51.846;5.856;2022-07-23T13:25:37;0.00;;;0.00;;
73627;SDS011;61923;51.846;5.856;2022-07-23T13:28:03;0.00;;;0.00;;
73627;SDS011;61923;51.846;5.856;2022-07-23T13:30:29;0.00;;;0.00;;
73627;SDS011;61923;51.846;5.856;2022-07-23T13:32:54;0.00;;;0.00;;
73627;SDS011;61923;51.846;5.856;2022-07-23T13:35:20;0.00;;;0.00;;
73627;SDS011;61923;51.846;5.856;2022-07-23T13:37:46;0.00;;;0.00;;
73627;SDS011;61923;51.846;5.856;2022-07-23T13:40:12;0.00;;;0.00;;
73627;SDS011;61923;51.846;5.856;2022-07-23T13:42:37;0.00;;;0.00;;
73627;SDS011;61923;51.846;5.856;2022-07-23T13:45:03;0.00;;;0.00;;
73627;SDS011;61923;51.846;5.856;2022-07-23T13:47:29;0.00;;;0.00;;
73627;SDS011;61923;51.846;5.856;2022-07-23T13:49:55;0.00;;;0.00;;
73627;SDS011;61923;51.846;5.856;2022-07-23T13:52:21;0.00;;;0.00;;
73627;SDS011;61923;51.846;5.856;2022-07-23T13:54:46;0.00;;;0.00;;
73627;SDS011;61923;51.846;5.856;2022-07-23T13:57:12;0.00;;;0.00;;
73627;SDS011;61923;51.846;5.856;2022-07-23T13:59:37;0.00;;;0.00;;
73627;SDS011;61923;51.846;5.856;2022-07-23T14:02:03;0.00;;;0.00;;
73627;SDS011;61923;51.846;5.856;2022-07-23T14:04:29;0.00;;;0.00;;
73627;SDS011;61923;51.846;5.856;2022-07-23T14:06:55;0.00;;;0.00;;
73627;SDS011;61923;51.846;5.856;2022-07-23T14:09:21;0.00;;;0.00;;
73627;SDS011;61923;51.846;5.856;2022-07-23T14:11:47;0.00;;;0.00;;
73627;SDS011;61923;51.846;5.856;2022-07-23T14:14:13;0.00;;;0.00;;
73627;SDS011;61923;51.846;5.856;2022-07-23T14:16:38;0.00;;;0.00;;
73627;SDS011;61923;51.846;5.856;2022-07-23T14:19:04;0.00;;;0.00;;
73627;SDS011;61923;51.846;5.856;2022-07-23T14:21:29;0.00;;;0.00;;
73627;SDS011;61923;51.846;5.856;2022-07-23T14:23:55;0.00;;;0.00;;
73627;SDS011;61923;51.846;5.856;2022-07-23T14:26:20;0.00;;;0.00;;
73627;SDS011;61923;51.846;5.856;2022-07-23T14:28:46;0.00;;;0.00;;
73627;SDS011;61923;51.846;5.856;2022-07-23T14:31:11;0.00;;;0.00;;
73627;SDS011;61923;51.846;5.856;2022-07-23T14:33:37;0.00;;;0.00;;
73627;SDS011;61923;51.846;5.856;2022-07-23T14:36:02;0.00;;;0.00;;
73627;SDS011;61923;51.846;5.856;2022-07-23T14:38:28;0.00;;;0.00;;
73627;SDS011;61923;51.846;5.856;2022-07-23T14:40:55;0.00;;;0.00;;
73627;SDS011;61923;51.846;5.856;2022-07-23T14:43:21;0.00;;;0.00;;
73627;SDS011;61923;51.846;5.856;2022-07-23T14:45:46;0.00;;;0.00;;
73627;SDS011;61923;51.846;5.856;2022-07-23T14:48:12;0.00;;;0.00;;
73627;SDS011;61923;51.846;5.856;2022-07-23T14:50:37;0.00;;;0.00;;
73627;SDS011;61923;51.846;5.856;2022-07-23T14:53:03;0.00;;;0.00;;
73627;SDS011;61923;51.846;5.856;2022-07-23T14:55:30;0.00;;;0.00;;
73627;SDS011;61923;51.846;5.856;2022-07-23T14:57:59;0.00;;;0.00;;
73627;SDS011;61923;51.846;5.856;2022-07-23T15:00:24;0.00;;;0.00;;
73627;SDS011;61923;51.846;5.856;2022-07-23T15:02:51;0.00;;;0.00;;
73627;SDS011;61923;51.846;5.856;2022-07-23T15:05:25;0.05;;;0.00;;
73627;SDS011;61923;51.846;5.856;2022-07-23T15:07:50;0.00;;;0.00;;
73627;SDS011;61923;51.846;5.856;2022-07-23T15:10:16;0.00;;;0.00;;
73627;SDS011;61923;51.846;5.856;2022-07-23T15:12:42;0.00;;;0.00;;
73627;SDS011;61923;51.846;5.856;2022-07-23T15:15:07;0.00;;;0.00;;
73627;SDS011;61923;51.846;5.856;2022-07-23T15:17:33;0.00;;;0.00;;
73627;SDS011;61923;51.846;5.856;2022-07-23T15:19:58;0.00;;;0.00;;
73627;SDS011;61923;51.846;5.856;2022-07-23T15:22:24;0.00;;;0.00;;
73627;SDS011;61923;51.846;5.856;2022-07-23T15:24:49;0.00;;;0.00;;
73627;SDS011;61923;51.846;5.856;2022-07-23T15:27:15;0.00;;;0.00;;
73627;SDS011;61923;51.846;5.856;2022-07-23T15:29:42;0.00;;;0.00;;
73627;SDS011;61923;51.846;5.856;2022-07-23T15:32:08;0.00;;;0.00;;
73627;SDS011;61923;51.846;5.856;2022-07-23T15:34:33;0.00;;;0.00;;